Time;durP1;ratioP1;P1;durP2;ratioP2;P2;SDS_P1;SDS_P2;PMS_P1;PMS_P2;Temp;Humidity;BMP_temperature;BMP_pressure;BME280_temperature;BME280_humidity;BME280_pressure;Samples;Min_cycle;Max_cycle;Signal;HPM_P1;HPM_P2
2022/11/26 00:00:43;;;;;;;24.75;10.32;;;;;;;4.45;100.00;102439.19;5096405;28;20451;-85
2022/11/26 00:03:12;;;;;;;38.00;11.87;;;;;;;4.48;100.00;102444.28;5096916;28;20132;-85
2022/11/26 00:05:41;;;;;;;33.60;11.95;;;;;;;4.46;100.00;102443.56;5096586;28;20032;-85
2022/11/26 00:08:17;;;;;;;37.60;11.07;;;;;;;4.45;100.00;102444.53;5078326;28;20463;-85
2022/11/26 00:10:43;;;;;;;38.92;11.05;;;;;;;4.42;100.00;102443.97;5078600;28;20090;-84
2022/11/26 00:13:17;;;;;;;27.85;11.10;;;;;;;4.42;100.00;102443.97;5078216;28;20040;-85
2022/11/26 00:15:43;;;;;;;36.25;11.68;;;;;;;4.37;100.00;102436.31;5078229;28;20051;-85
2022/11/26 00:18:08;;;;;;;35.53;10.88;;;;;;;4.35;100.00;102449.88;5078489;28;20032;-84
2022/11/26 00:20:34;;;;;;;29.87;11.20;;;;;;;4.34;100.00;102448.19;5062334;28;20066;-85
2022/11/26 00:23:02;;;;;;;32.80;11.30;;;;;;;4.32;100.00;102442.09;5096278;28;20040;-85
2022/11/26 00:25:37;;;;;;;36.17;11.00;;;;;;;4.30;100.00;102449.44;5096170;28;20044;-84
2022/11/26 00:28:19;;;;;;;42.00;11.43;;;;;;;4.26;100.00;102457.91;5095906;28;20480;-85
2022/11/26 00:30:44;;;;;;;32.05;10.48;;;;;;;4.25;100.00;102450.81;5078315;28;20047;-85
2022/11/26 00:33:10;;;;;;;34.17;10.48;;;;;;;4.24;100.00;102450.00;5077865;28;20509;-84
2022/11/26 00:35:36;;;;;;;32.67;10.90;;;;;;;4.24;100.00;102450.00;5077360;28;20055;-84
2022/11/26 00:38:01;;;;;;;31.73;11.83;;;;;;;4.21;100.00;102456.47;5078045;28;20028;-84
2022/11/26 00:40:31;;;;;;;37.95;12.10;;;;;;;4.19;100.00;102453.06;5077337;28;20058;-85
2022/11/26 00:42:58;;;;;;;39.65;11.20;;;;;;;4.16;100.00;102453.34;5095989;28;20040;-85
2022/11/26 00:45:28;;;;;;;29.88;11.73;;;;;;;4.15;100.00;102461.50;5077387;28;20042;-84
2022/11/26 00:47:54;;;;;;;31.85;10.73;;;;;;;4.08;100.00;102458.53;5077981;28;20039;-85
2022/11/26 00:50:25;;;;;;;34.05;10.95;;;;;;;4.05;100.00;102464.16;5061287;28;20036;-85
2022/11/26 00:52:55;;;;;;;36.47;10.93;;;;;;;4.03;100.00;102464.31;5077746;28;20047;-84
2022/11/26 00:55:37;;;;;;;32.15;10.25;;;;;;;4.00;100.00;102469.06;5077530;28;20058;-85
2022/11/26 00:58:04;;;;;;;32.58;11.32;;;;;;;3.96;100.00;102456.91;5077662;28;20066;-84
2022/11/26 01:00:33;;;;;;;36.65;10.63;;;;;;;3.96;100.00;102460.44;5077941;28;20040;-85
2022/11/26 01:03:00;;;;;;;39.20;11.00;;;;;;;3.93;100.00;102465.25;5077374;28;20074;-84
2022/11/26 01:05:30;;;;;;;39.23;11.03;;;;;;;3.94;100.00;102475.84;5077616;28;20541;-84
2022/11/26 01:08:05;;;;;;;38.67;10.95;;;;;;;3.94;100.00;102474.97;5078077;28;20083;-84
2022/11/26 01:10:31;;;;;;;37.80;11.50;;;;;;;3.92;100.00;102467.03;5077513;28;20032;-85
2022/11/26 01:12:57;;;;;;;36.00;10.80;;;;;;;3.89;100.00;102469.16;5095241;28;20067;-85
2022/11/26 01:15:24;;;;;;;37.03;10.70;;;;;;;3.85;100.00;102466.75;5078101;28;20068;-85
2022/11/26 01:17:51;;;;;;;34.53;11.35;;;;;;;3.87;100.00;102463.91;5077078;28;20028;-85
2022/11/26 01:20:23;;;;;;;32.78;10.85;;;;;;;3.82;100.00;102464.31;5077006;28;20499;-85
2022/11/26 01:22:50;;;;;;;39.42;11.05;;;;;;;3.81;100.00;102456.38;5077758;28;20384;-85
2022/11/26 01:25:17;;;;;;;30.52;11.45;;;;;;;3.83;100.00;102462.47;5095535;28;20426;-84
2022/11/26 01:27:42;;;;;;;32.72;11.85;;;;;;;3.78;100.00;102451.25;5076857;28;20055;-85
2022/11/26 01:30:20;;;;;;;46.22;12.70;;;;;;;3.74;100.00;102458.75;5060131;28;20047;-85
2022/11/26 01:32:47;;;;;;;35.63;11.45;;;;;;;3.74;100.00;102456.06;5076947;28;20048;-85
2022/11/26 01:35:13;;;;;;;38.38;12.65;;;;;;;3.72;100.00;102457.16;5076636;28;20032;-85
2022/11/26 01:37:39;;;;;;;39.00;12.40;;;;;;;3.68;100.00;102457.44;5076555;28;20032;-85
2022/11/26 01:40:25;;;;;;;30.77;10.93;;;;;;;3.63;100.00;102459.66;5077329;28;20119;-85
2022/11/26 01:43:09;;;;;;;32.00;12.10;;;;;;;3.63;100.00;102461.47;5094499;28;20043;-85
2022/11/26 01:45:35;;;;;;;43.80;12.80;;;;;;;3.61;100.00;102466.13;5076834;28;20093;-85
2022/11/26 01:48:00;;;;;;;31.58;12.43;;;;;;;3.60;100.00;102467.97;5076536;28;20435;-85
2022/11/26 01:50:33;;;;;;;39.53;12.63;;;;;;;3.56;100.00;102479.94;5076775;28;20044;-85
2022/11/26 01:53:02;;;;;;;37.13;12.45;;;;;;;3.55;100.00;102482.75;5071661;28;20052;-85
2022/11/26 01:55:35;;;;;;;38.08;13.15;;;;;;;3.54;100.00;102487.25;5072875;28;20048;-85
2022/11/26 01:58:02;;;;;;;46.23;13.90;;;;;;;3.57;100.00;102483.47;5074575;28;20079;-85
2022/11/26 02:00:28;;;;;;;38.08;12.07;;;;;;;3.53;100.00;102488.25;5039374;28;20504;-85
2022/11/26 02:02:53;;;;;;;34.25;12.07;;;;;;;3.54;100.00;102481.88;5072866;28;20047;-84
2022/11/26 02:05:26;;;;;;;39.20;12.67;;;;;;;3.55;100.00;102497.03;5039301;28;20063;-85
2022/11/26 02:07:52;;;;;;;37.17;12.93;;;;;;;3.50;100.00;102493.88;5072714;28;20131;-85
2022/11/26 02:10:18;;;;;;;39.45;12.25;;;;;;;3.51;100.00;102498.25;5055807;28;20102;-85
2022/11/26 02:12:44;;;;;;;37.40;13.07;;;;;;;3.53;100.00;102492.75;5072811;28;20396;-84
2022/11/26 02:15:11;;;;;;;43.67;13.68;;;;;;;3.53;100.00;102495.44;5073688;28;20040;-85
2022/11/26 02:17:42;;;;;;;45.95;13.48;;;;;;;3.51;100.00;102498.25;5072573;28;20056;-85
2022/11/26 02:20:10;;;;;;;42.40;12.90;;;;;;;3.53;100.00;102501.69;5072735;28;20040;-85
2022/11/26 02:22:42;;;;;;;43.97;14.43;;;;;;;3.56;100.00;102509.47;5074463;28;20119;-84
2022/11/26 02:25:32;;;;;;;40.60;13.05;;;;;;;3.58;100.00;102504.81;5072520;28;20044;-84
2022/11/26 02:28:09;;;;;;;44.22;13.52;;;;;;;3.56;100.00;102508.59;5072569;28;20068;-85
2022/11/26 02:30:40;;;;;;;47.25;13.20;;;;;;;3.54;100.00;102507.88;5072784;28;20383;-84
2022/11/26 02:33:12;;;;;;;39.53;12.67;;;;;;;3.55;100.00;102515.81;5072100;28;20032;-84
2022/11/26 02:35:45;;;;;;;40.92;13.02;;;;;;;3.55;100.00;102505.06;5072208;28;20082;-85
2022/11/26 02:38:15;;;;;;;44.13;13.90;;;;;;;3.55;100.00;102502.38;5072633;28;20028;-85
2022/11/26 02:40:43;;;;;;;51.83;13.95;;;;;;;3.53;100.00;102499.00;5072734;28;20039;-85
2022/11/26 02:43:08;;;;;;;38.03;12.93;;;;;;;3.52;100.00;102497.28;5056037;28;20095;-85
2022/11/26 02:45:37;;;;;;;47.03;13.77;;;;;;;3.49;100.00;102498.38;5055662;28;20040;-84
2022/11/26 02:48:15;;;;;;;47.38;14.15;;;;;;;3.48;100.00;102510.13;5072600;28;20044;-85
2022/11/26 02:50:52;;;;;;;40.58;13.68;;;;;;;3.48;100.00;102511.94;5072572;28;20044;-84
2022/11/26 02:53:22;;;;;;;45.72;12.90;;;;;;;3.50;100.00;102518.88;5072293;28;20049;-85
2022/11/26 02:56:20;;;;;;;41.33;13.02;;;;;;;3.49;100.00;102509.13;5072221;28;20048;-85
2022/11/26 02:58:49;;;;;;;41.10;12.80;;;;;;;3.57;100.00;102521.88;5058089;28;20461;-85
2022/11/26 03:01:39;;;;;;;43.55;13.50;;;;;;;3.54;100.00;102519.47;5072261;28;20055;-85
2022/11/26 03:04:16;;;;;;;36.45;12.57;;;;;;;3.58;100.00;102512.03;5071880;28;20059;-85
2022/11/26 03:06:42;;;;;;;49.28;12.65;;;;;;;3.58;100.00;102510.19;5075880;28;20047;-85
2022/11/26 03:09:08;;;;;;;32.63;11.32;;;;;;;3.60;100.00;102527.03;5059572;28;20040;-85
2022/11/26 03:11:37;;;;;;;38.90;12.40;;;;;;;3.56;100.00;102525.56;5076622;28;20055;-85
2022/11/26 03:14:03;;;;;;;31.42;12.02;;;;;;;3.54;100.00;102526.69;5075697;28;20086;-85
2022/11/26 03:16:29;;;;;;;35.92;12.20;;;;;;;3.54;100.00;102534.72;5059653;28;20473;-85
2022/11/26 03:18:57;;;;;;;47.85;11.93;;;;;;;3.53;100.00;102538.38;5076059;28;20047;-85
2022/11/26 03:21:22;;;;;;;39.08;12.00;;;;;;;3.48;100.00;102539.66;5075984;28;20067;-85
2022/11/26 03:23:48;;;;;;;42.70;12.60;;;;;;;3.44;100.00;102538.19;5075826;28;20473;-85
2022/11/26 03:26:13;;;;;;;37.78;11.85;;;;;;;3.43;100.00;102541.00;5059398;28;20037;-85
2022/11/26 03:28:38;;;;;;;46.33;12.35;;;;;;;3.47;100.00;102534.38;5075454;28;20131;-85
2022/11/26 03:31:04;;;;;;;42.87;12.50;;;;;;;3.46;100.00;102544.25;5059080;28;20139;-85
2022/11/26 03:33:29;;;;;;;36.30;11.77;;;;;;;3.46;100.00;102548.78;5042400;28;20037;-85
2022/11/26 03:35:55;;;;;;;36.83;12.57;;;;;;;3.45;100.00;102555.13;5075585;28;20045;-85
2022/11/26 03:38:20;;;;;;;45.25;12.07;;;;;;;3.49;100.00;102559.28;5075516;28;20044;-85
2022/11/26 03:41:03;;;;;;;40.00;11.77;;;;;;;3.47;100.00;102553.16;5075286;28;20048;-85
2022/11/26 03:43:28;;;;;;;30.75;11.38;;;;;;;3.46;100.00;102544.25;5075465;28;20040;-85
2022/11/26 03:45:54;;;;;;;38.50;12.20;;;;;;;3.52;100.00;102542.91;5075162;28;20037;-85
2022/11/26 03:48:19;;;;;;;35.30;11.60;;;;;;;3.53;100.00;102549.13;5075455;28;20040;-85
2022/11/26 03:50:45;;;;;;;48.95;11.98;;;;;;;3.53;100.00;102552.69;5075155;28;20127;-85
2022/11/26 03:53:11;;;;;;;46.57;11.43;;;;;;;3.54;100.00;102559.72;5074966;28;20051;-85
2022/11/26 03:55:36;;;;;;;35.93;11.23;;;;;;;3.50;100.00;102551.09;5042054;28;20039;-85
2022/11/26 03:58:02;;;;;;;37.92;10.90;;;;;;;3.47;100.00;102545.09;5058584;28;20303;-85
2022/11/26 04:00:27;;;;;;;42.70;11.27;;;;;;;3.45;100.00;102558.66;5058577;28;20041;-85
2022/11/26 04:02:53;;;;;;;42.53;11.90;;;;;;;3.41;100.00;102562.59;5075403;28;20040;-85
2022/11/26 04:05:18;;;;;;;34.10;10.57;;;;;;;3.38;100.00;102559.28;5075074;28;20418;-85
2022/11/26 04:07:44;;;;;;;40.33;11.40;;;;;;;3.37;100.00;102565.66;5074910;28;20476;-84
2022/11/26 04:10:09;;;;;;;34.87;11.47;;;;;;;3.36;100.00;102572.84;5074985;28;20044;-84
2022/11/26 04:12:35;;;;;;;45.22;12.63;;;;;;;3.36;100.00;102572.84;5074892;28;20032;-84
2022/11/26 04:15:01;;;;;;;41.17;11.70;;;;;;;3.34;100.00;102578.31;5074884;28;20033;-85
2022/11/26 04:17:26;;;;;;;41.65;11.02;;;;;;;3.31;100.00;102575.06;5074000;28;20270;-84
2022/11/26 04:19:51;;;;;;;40.03;11.50;;;;;;;3.27;100.00;102581.66;5075881;28;20044;-85
2022/11/26 04:22:17;;;;;;;44.30;11.93;;;;;;;3.26;100.00;102586.16;5074858;28;20067;-84
2022/11/26 04:24:42;;;;;;;34.97;9.60;;;;;;;3.25;100.00;102586.25;5076057;28;20064;-85
2022/11/26 04:27:08;;;;;;;43.38;10.73;;;;;;;3.26;100.00;102586.16;5075794;28;20419;-85
2022/11/26 04:29:36;;;;;;;31.63;10.00;;;;;;;3.30;100.00;102582.22;5074605;28;20464;-85
2022/11/26 04:32:04;;;;;;;37.42;11.30;;;;;;;3.32;100.00;102577.63;5074653;28;20064;-85
2022/11/26 04:34:30;;;;;;;33.13;10.07;;;;;;;3.33;100.00;102579.28;5058269;28;20132;-85
2022/11/26 04:36:55;;;;;;;33.30;9.75;;;;;;;3.32;100.00;102566.88;5074526;28;20076;-85
2022/11/26 04:39:21;;;;;;;41.10;10.32;;;;;;;3.31;100.00;102583.09;5075730;28;20469;-85
2022/11/26 04:41:48;;;;;;;39.60;10.13;;;;;;;3.28;100.00;102580.69;5074450;28;20040;-85
2022/11/26 04:44:14;;;;;;;37.88;10.13;;;;;;;3.30;100.00;102586.75;5075443;28;20036;-84
2022/11/26 04:46:39;;;;;;;45.47;10.20;;;;;;;3.28;100.00;102589.56;5057657;28;20473;-85
2022/11/26 04:49:05;;;;;;;41.73;10.93;;;;;;;3.29;100.00;102593.09;5074016;28;20431;-84
2022/11/26 04:51:30;;;;;;;37.75;10.32;;;;;;;3.27;100.00;102595.06;5057949;28;20106;-85
2022/11/26 04:53:56;;;;;;;34.97;9.88;;;;;;;3.27;100.00;102592.38;5074371;28;20447;-85
2022/11/26 04:56:22;;;;;;;33.47;9.80;;;;;;;3.27;100.00;102589.69;5074112;28;20491;-85
2022/11/26 04:58:47;;;;;;;35.38;10.07;;;;;;;3.32;100.00;102582.97;5057414;28;20044;-85
2022/11/26 05:01:13;;;;;;;42.60;10.43;;;;;;;3.30;100.00;102584.06;5075636;28;20117;-84
2022/11/26 05:03:38;;;;;;;42.50;11.53;;;;;;;3.28;100.00;102591.41;5073957;28;20533;-85
2022/11/26 05:06:04;;;;;;;40.83;10.63;;;;;;;3.29;100.00;102599.31;5073603;28;20545;-85
2022/11/26 05:08:29;;;;;;;49.93;10.47;;;;;;;3.31;100.00;102591.16;5058019;28;20047;-85
2022/11/26 05:10:57;;;;;;;35.90;10.87;;;;;;;3.31;100.00;102592.00;5073820;28;20048;-85
2022/11/26 05:13:23;;;;;;;39.30;9.98;;;;;;;3.32;100.00;102601.75;5073757;28;20473;-85
2022/11/26 05:15:48;;;;;;;30.80;10.98;;;;;;;3.38;100.00;102603.09;5074824;28;20046;-85
2022/11/26 05:18:13;;;;;;;46.53;10.03;;;;;;;3.33;100.00;102599.91;5056728;28;20507;-85
2022/11/26 05:20:39;;;;;;;38.10;10.33;;;;;;;3.33;100.00;102599.91;5074659;28;20051;-85
2022/11/26 05:23:04;;;;;;;38.88;9.60;;;;;;;3.36;100.00;102602.34;5056994;28;20384;-84
2022/11/26 05:25:30;;;;;;;39.83;9.90;;;;;;;3.34;100.00;102597.09;5073732;28;20040;-84
2022/11/26 05:27:55;;;;;;;37.70;9.60;;;;;;;3.35;100.00;102606.00;5072801;28;20099;-84
2022/11/26 05:30:21;;;;;;;39.10;11.17;;;;;;;3.37;100.00;102603.22;5074018;28;20024;-84
2022/11/26 05:32:46;;;;;;;40.20;10.40;;;;;;;3.33;100.00;102605.28;5073612;28;20533;-85
2022/11/26 05:35:36;;;;;;;43.30;10.40;;;;;;;3.32;100.00;102616.97;5072985;28;20106;-84
2022/11/26 05:38:00;;;;;;;31.70;8.75;;;;;;;3.32;100.00;102612.50;5074264;28;20040;-85
2022/11/26 05:40:26;;;;;;;30.90;9.73;;;;;;;3.32;100.00;102614.31;5073517;28;20476;-85
2022/11/26 05:42:53;;;;;;;46.47;9.83;;;;;;;3.35;100.00;102619.41;5074537;28;20037;-85
2022/11/26 05:45:21;;;;;;;36.55;9.70;;;;;;;3.34;100.00;102621.25;5056834;28;20482;-85
2022/11/26 05:47:46;;;;;;;31.30;10.80;;;;;;;3.32;100.00;102623.22;5056432;28;20127;-85
2022/11/26 05:50:18;;;;;;;41.72;9.35;;;;;;;3.30;100.00;102614.44;5104045;27;1461650;-85
2022/11/26 05:52:44;;;;;;;37.53;9.23;;;;;;;3.29;100.00;102615.44;5113262;28;20075;-86
2022/11/26 05:55:10;;;;;;;32.13;10.00;;;;;;;3.30;100.00;102618.94;5113467;28;20042;-86
2022/11/26 05:57:36;;;;;;;48.42;10.73;;;;;;;3.28;100.00;102616.41;5131966;27;20023;-85
2022/11/26 06:00:05;;;;;;;42.28;10.05;;;;;;;3.28;100.00;102624.44;5130682;28;20460;-85
2022/11/26 06:02:30;;;;;;;40.83;11.05;;;;;;;3.28;100.00;102627.13;5130171;28;20023;-85
2022/11/26 06:04:58;;;;;;;41.23;9.83;;;;;;;3.28;100.00;102643.22;5113412;28;20043;-85
2022/11/26 06:07:24;;;;;;;33.92;9.88;;;;;;;3.27;100.00;102638.81;5130016;28;20031;-85
2022/11/26 06:09:49;;;;;;;40.77;11.20;;;;;;;3.24;100.00;102639.06;5130121;28;20092;-86
2022/11/26 06:12:17;;;;;;;40.03;9.23;;;;;;;3.28;100.00;102650.44;5130458;28;20069;-85
2022/11/26 06:14:43;;;;;;;44.40;10.15;;;;;;;3.27;100.00;102648.72;5096911;28;20027;-85
2022/11/26 06:17:08;;;;;;;34.53;8.93;;;;;;;3.26;100.00;102655.03;5129772;28;20471;-85
2022/11/26 06:19:36;;;;;;;38.08;10.90;;;;;;;3.25;100.00;102642.59;5113225;28;20364;-85
2022/11/26 06:22:02;;;;;;;36.97;9.68;;;;;;;3.22;100.00;102637.47;5096498;28;20039;-85
2022/11/26 06:24:27;;;;;;;37.43;9.10;;;;;;;3.21;100.00;102643.84;5112678;28;20126;-85
2022/11/26 06:26:53;;;;;;;29.07;9.43;;;;;;;3.21;100.00;102639.31;5130297;28;20121;-85
2022/11/26 06:29:18;;;;;;;37.47;10.40;;;;;;;3.18;100.00;102644.09;5095989;28;20027;-84
2022/11/26 06:31:44;;;;;;;48.63;10.90;;;;;;;3.17;100.00;102653.94;5129876;28;20027;-86
2022/11/26 06:34:17;;;;;;;28.47;9.47;;;;;;;3.15;100.00;102653.22;5096005;28;20035;-87
2022/11/26 06:36:42;;;;;;;32.35;9.88;;;;;;;3.14;100.00;102646.16;5130044;28;20107;-87
2022/11/26 06:39:12;;;;;;;44.23;9.47;;;;;;;3.14;100.00;102646.16;5129109;28;20139;-87
2022/11/26 06:41:40;;;;;;;32.88;9.85;;;;;;;3.12;100.00;102650.78;5129920;28;20026;-87
2022/11/26 06:44:08;;;;;;;37.95;9.52;;;;;;;3.11;100.00;102657.13;5129573;28;20031;-87
2022/11/26 06:46:34;;;;;;;31.90;9.45;;;;;;;3.10;100.00;102656.28;5129809;28;20038;-85
2022/11/26 06:49:04;;;;;;;39.90;10.82;;;;;;;3.06;100.00;102659.34;5129218;27;20047;-85
2022/11/26 06:51:31;;;;;;;43.92;10.20;;;;;;;3.09;100.00;102665.28;5112690;28;20027;-85
2022/11/26 06:53:57;;;;;;;42.80;9.68;;;;;;;3.09;100.00;102661.78;5129301;28;20027;-86
2022/11/26 06:56:25;;;;;;;40.67;9.75;;;;;;;3.08;100.00;102663.56;5130834;27;20028;-86
2022/11/26 06:58:54;;;;;;;42.20;9.13;;;;;;;3.11;100.00;102660.66;5130758;28;20463;-85
2022/11/26 07:01:22;;;;;;;40.43;9.77;;;;;;;3.12;100.00;102662.38;5100816;28;20035;-86
2022/11/26 07:03:48;;;;;;;36.67;9.77;;;;;;;3.19;100.00;102669.91;5115997;28;20084;-86
2022/11/26 07:06:22;;;;;;;37.22;9.73;;;;;;;3.17;100.00;102670.03;5115569;28;20471;-88
2022/11/26 07:08:49;;;;;;;32.25;8.20;;;;;;;3.23;100.00;102679.44;5115385;28;20513;-85
2022/11/26 07:11:15;;;;;;;31.13;9.00;;;;;;;3.24;100.00;102679.31;5115227;28;20136;-85
2022/11/26 07:13:40;;;;;;;43.83;9.82;;;;;;;3.25;100.00;102685.53;5116035;28;20139;-86
2022/11/26 07:16:06;;;;;;;32.40;8.97;;;;;;;3.21;100.00;102676.88;5081518;28;20119;-86
2022/11/26 07:18:32;;;;;;;33.65;8.98;;;;;;;3.24;100.00;102681.16;5116431;28;20441;-85
2022/11/26 07:21:06;;;;;;;31.77;9.93;;;;;;;3.27;100.00;102687.13;5116247;28;20077;-85
2022/11/26 07:23:32;;;;;;;39.08;9.57;;;;;;;3.28;100.00;102691.50;5116736;28;20035;-85
2022/11/26 07:25:59;;;;;;;31.77;9.80;;;;;;;3.29;100.00;102692.34;5115291;28;20038;-85
2022/11/26 07:28:25;;;;;;;34.83;8.68;;;;;;;3.28;100.00;102694.19;5114544;28;20119;-85
2022/11/26 07:30:50;;;;;;;37.75;10.07;;;;;;;3.28;100.00;102691.50;5115943;27;20403;-85
2022/11/26 07:33:16;;;;;;;37.57;9.20;;;;;;;3.28;100.00;102696.03;5116409;28;20531;-85
2022/11/26 07:35:41;;;;;;;42.07;9.67;;;;;;;3.31;100.00;102699.31;5115023;28;20095;-85
2022/11/26 07:38:06;;;;;;;39.53;9.30;;;;;;;3.31;100.00;102695.78;5114448;28;20345;-85
2022/11/26 07:40:32;;;;;;;36.23;9.20;;;;;;;3.33;100.00;102697.34;5114928;28;20468;-85
2022/11/26 07:42:59;;;;;;;39.35;10.63;;;;;;;3.37;100.00;102697.97;5114945;28;20106;-85
2022/11/26 07:45:24;;;;;;;30.80;9.03;;;;;;;3.40;100.00;102699.56;5114940;28;20028;-85
2022/11/26 07:47:50;;;;;;;41.03;10.85;;;;;;;3.41;100.00;102699.44;5115430;28;20024;-85
2022/11/26 07:50:17;;;;;;;42.70;9.57;;;;;;;3.40;100.00;102699.56;5114028;28;20056;-85
2022/11/26 07:52:43;;;;;;;39.67;10.70;;;;;;;3.41;100.00;102699.44;5081608;28;20020;-84
2022/11/26 07:55:09;;;;;;;36.43;10.43;;;;;;;3.44;100.00;102706.38;5097969;28;20028;-85
2022/11/26 07:57:34;;;;;;;41.95;11.13;;;;;;;3.44;100.00;102691.16;5094509;28;20039;-85
2022/11/26 08:00:00;;;;;;;39.07;11.40;;;;;;;3.50;100.00;102695.19;5111046;28;20391;-85
2022/11/26 08:02:25;;;;;;;38.63;12.60;;;;;;;3.55;100.00;102692.97;5097549;28;20368;-85
2022/11/26 08:04:50;;;;;;;40.87;13.07;;;;;;;3.61;100.00;102705.88;5114835;28;20069;-84
2022/11/26 08:07:16;;;;;;;36.23;12.83;;;;;;;3.66;100.00;102703.69;5096992;28;20456;-87
2022/11/26 08:09:43;;;;;;;39.95;11.15;;;;;;;3.68;100.00;102695.50;5097001;28;20285;-84
2022/11/26 08:12:09;;;;;;;50.10;13.60;;;;;;;3.74;100.00;102707.59;5097170;28;20031;-86
2022/11/26 08:14:34;;;;;;;37.30;11.73;;;;;;;3.82;100.00;102702.44;5097116;28;20034;-84
2022/11/26 08:17:00;;;;;;;46.20;13.50;;;;;;;3.90;100.00;102704.47;5097303;28;20464;-84
2022/11/26 08:19:31;;;;;;;37.53;13.67;;;;;;;4.01;100.00;102708.00;5114322;28;20027;-84
2022/11/26 08:21:56;;;;;;;41.08;13.38;;;;;;;4.08;100.00;102710.19;5114182;28;20051;-84
2022/11/26 08:24:22;;;;;;;43.80;12.80;;;;;;;4.14;100.00;102712.38;5113996;28;20108;-84
2022/11/26 08:26:48;;;;;;;39.20;12.60;;;;;;;4.20;100.00;102711.84;5097565;28;20114;-84
2022/11/26 08:29:14;;;;;;;39.67;12.45;;;;;;;4.26;100.00;102716.72;5113963;28;20114;-84
2022/11/26 08:31:40;;;;;;;34.77;13.27;;;;;;;4.30;100.00;102712.78;5115155;28;20175;-84
2022/11/26 08:34:06;;;;;;;43.20;12.82;;;;;;;4.37;100.00;102718.50;5113839;28;20487;-85
2022/11/26 08:36:32;;;;;;;34.85;12.20;;;;;;;4.43;100.00;102720.69;5113978;28;20047;-84
2022/11/26 08:38:58;;;;;;;34.30;13.27;;;;;;;4.46;100.00;102719.56;5096519;28;20024;-84
2022/11/26 08:41:26;;;;;;;35.97;12.23;;;;;;;4.49;100.00;102720.16;5113725;28;20114;-85
2022/11/26 08:43:54;;;;;;;44.40;11.90;;;;;;;4.51;100.00;102723.56;5114982;28;20119;-84
2022/11/26 08:46:22;;;;;;;36.50;11.65;;;;;;;4.59;100.00;102719.38;5112092;28;20039;-85
2022/11/26 08:48:53;;;;;;;38.90;12.13;;;;;;;4.62;100.00;102725.38;5113036;28;20060;-84
2022/11/26 08:51:18;;;;;;;35.90;11.40;;;;;;;4.67;100.00;102714.22;5080013;28;20038;-84
2022/11/26 08:53:44;;;;;;;34.90;11.07;;;;;;;4.76;100.00;102720.66;5113455;28;20031;-84
2022/11/26 08:56:14;;;;;;;33.50;11.25;;;;;;;4.82;100.00;102712.06;5096582;28;20035;-84
2022/11/26 08:58:47;;;;;;;34.25;11.13;;;;;;;4.89;100.00;102719.44;5113387;28;20046;-90
2022/11/26 09:01:18;;;;;;;33.53;10.25;;;;;;;4.95;100.00;102720.78;5096325;28;20031;-85
2022/11/26 09:03:47;;;;;;;32.20;10.70;;;;;;;5.02;100.00;102723.75;5112504;28;20445;-85
2022/11/26 09:06:13;;;;;;;32.73;10.53;;;;;;;5.05;100.00;102720.84;5113306;28;20089;-85
2022/11/26 09:09:24;;;;;;;31.98;10.55;;;;;;;5.08;100.00;102729.47;5099350;28;20438;-85
2022/11/26 09:11:26;;;;;;;30.52;8.57;;;;;;;5.13;100.00;102725.53;5086215;28;20040;-84
2022/11/26 09:13:52;;;;;;;32.70;10.13;;;;;;;5.16;100.00;102736.88;5082846;28;20032;-85
2022/11/26 09:16:18;;;;;;;37.17;10.57;;;;;;;5.19;100.00;102739.31;5095773;28;20418;-85
2022/11/26 09:18:43;;;;;;;25.63;9.50;;;;;;;5.26;100.00;102739.63;5094148;28;20601;-84
2022/11/26 09:21:09;;;;;;;32.47;9.80;;;;;;;5.31;100.00;102736.53;5109368;28;20048;-85
2022/11/26 09:23:34;;;;;;;27.97;9.97;;;;;;;5.35;100.00;102740.69;5090714;28;20056;-85
2022/11/26 09:26:02;;;;;;;28.67;8.77;;;;;;;5.40;100.00;102746.50;5058968;28;20059;-85
2022/11/26 09:28:28;;;;;;;39.80;11.15;;;;;;;5.46;100.00;102743.25;5075931;28;20032;-85
2022/11/26 09:30:57;;;;;;;41.97;10.30;;;;;;;5.58;100.00;102758.34;5075605;28;20031;-85
2022/11/26 09:33:25;;;;;;;35.55;9.15;;;;;;;5.68;100.00;102757.53;5076548;28;20036;-84
2022/11/26 09:35:51;;;;;;;28.50;9.13;;;;;;;5.72;100.00;102764.34;5092096;28;20036;-85
2022/11/26 09:38:16;;;;;;;36.30;10.17;;;;;;;5.78;100.00;102767.34;5094991;28;20114;-85
2022/11/26 09:41:17;;;;;;;38.80;9.07;;;;;;;5.88;100.00;102763.84;5092231;28;20020;-86
2022/11/26 09:44:13;;;;;;;27.63;8.93;;;;;;;5.92;100.00;102771.50;5112803;28;20313;-84
2022/11/26 09:46:54;;;;;;;28.25;9.27;;;;;;;6.02;100.00;102760.75;5114020;28;20379;-85
2022/11/26 09:49:19;;;;;;;27.73;8.43;;;;;;;6.08;100.00;102749.47;5097589;28;20101;-84
2022/11/26 09:51:50;;;;;;;25.57;8.93;;;;;;;6.17;100.00;102758.56;5099579;28;20031;-85
2022/11/26 09:54:20;;;;;;;28.55;9.05;;;;;;;6.22;100.00;102753.59;5107035;28;20081;-84
2022/11/26 09:56:48;;;;;;;29.08;8.13;;;;;;;6.31;100.00;102760.81;5091704;28;20044;-84
2022/11/26 09:59:19;;;;;;;34.08;8.38;;;;;;;6.39;100.00;102746.66;5109220;28;20024;-85
2022/11/26 10:01:48;;;;;;;25.05;7.90;;;;;;;6.49;100.00;102749.34;5108848;28;20051;-85
2022/11/26 10:04:34;;;;;;;23.83;7.37;;;;;;;6.63;100.00;102757.00;5093528;28;20460;-85
2022/11/26 10:07:15;;;;;;;24.27;7.80;;;;;;;6.74;100.00;102755.16;5091018;28;20032;-85
2022/11/26 10:10:06;;;;;;;30.92;7.80;;;;;;;6.78;100.00;102761.97;5091100;28;20487;-85
2022/11/26 10:12:51;;;;;;;23.88;7.35;;;;;;;6.71;100.00;102756.28;5103142;28;20088;-85
2022/11/26 10:15:26;;;;;;;24.52;7.05;;;;;;;6.73;100.00;102762.41;5111979;28;20491;-85
2022/11/26 10:18:01;;;;;;;26.47;7.33;;;;;;;6.79;100.00;102766.34;5100068;28;20031;-85
2022/11/26 10:20:34;;;;;;;25.45;6.93;;;;;;;6.87;100.00;102761.09;5108559;28;20029;-85
2022/11/26 10:23:12;;;;;;;27.65;7.78;;;;;;;7.03;100.00;102763.22;5091903;28;20053;-85
2022/11/26 10:25:44;;;;;;;23.95;7.43;;;;;;;7.18;100.00;102753.66;5108692;28;20078;-85
2022/11/26 10:28:23;;;;;;;26.40;7.00;;;;;;;7.44;100.00;102754.84;5093333;28;20032;-85
2022/11/26 10:30:58;;;;;;;29.50;7.77;;;;;;;7.56;100.00;102753.69;5109104;28;20024;-84
2022/11/26 10:33:28;;;;;;;22.48;6.53;;;;;;;7.65;100.00;102741.97;5092175;28;20020;-85
2022/11/26 10:35:55;;;;;;;21.52;6.32;;;;;;;7.81;100.00;102745.88;5093554;28;20024;-84
2022/11/26 10:38:21;;;;;;;18.02;6.63;;;;;;;7.87;100.00;102732.63;5094950;28;20032;-85
2022/11/26 10:40:47;;;;;;;30.35;6.70;;;;;;;8.02;100.00;102732.09;5095812;28;20038;-85
2022/11/26 10:43:19;;;;;;;27.63;7.53;;;;;;;8.02;100.00;102735.66;5095156;28;20122;-85
2022/11/26 10:45:53;;;;;;;23.42;6.05;;;;;;;8.04;100.00;102732.78;5095926;28;20036;-85
2022/11/26 10:48:22;;;;;;;18.05;5.55;;;;;;;8.20;100.00;102729.41;5111881;28;20028;-85
2022/11/26 10:50:56;;;;;;;18.08;5.65;;;;;;;8.29;100.00;102723.06;5112793;28;20537;-85
2022/11/26 10:53:24;;;;;;;22.85;6.88;;;;;;;8.42;100.00;102730.81;5112426;28;20074;-84
2022/11/26 10:55:52;;;;;;;25.42;6.18;;;;;;;8.66;100.00;102732.06;5096476;28;20369;-85
2022/11/26 10:58:23;;;;;;;25.23;6.15;;;;;;;8.82;100.00;102725.94;5094930;28;20384;-85
2022/11/26 11:00:48;;;;;;;26.77;6.10;;;;;;;8.98;100.00;102720.63;5112172;28;20020;-85
2022/11/26 11:03:23;;;;;;;24.65;5.40;;;;;;;9.09;100.00;102722.22;5112333;28;20525;-84
2022/11/26 11:06:09;;;;;;;23.70;5.63;;;;;;;9.24;100.00;102725.16;5095341;28;20028;-84
2022/11/26 11:08:35;;;;;;;23.48;4.80;;;;;;;9.52;100.00;102720.41;5096025;28;20028;-85
2022/11/26 11:11:05;;;;;;;25.40;5.60;;;;;;;9.63;100.00;102708.44;5095100;28;20229;-93
2022/11/26 11:13:42;;;;;;;28.30;5.85;;;;;;;9.82;100.00;102716.28;5095107;28;20274;-85
2022/11/26 11:16:09;;;;;;;19.38;5.45;;;;;;;9.96;100.00;102722.94;5095068;28;20027;-84
2022/11/26 11:18:35;;;;;;;17.33;4.75;;;;;;;10.12;98.80;102722.13;5094941;28;20460;-84